Time,TemperatureF,DewpointF,PressureIn,WindDirection,WindDirectionDegrees,WindSpeedMPH,WindSpeedGustMPH,Humidity,HourlyPrecipIn,Conditions,Clouds,dailyrainin,SoftwareType,DateUTC
2013-06-27 00:01:00,71.6,12.2,29.15,North,0,0.0,0.0,1,0.00,,,0.00,WUHU216HW,2013-06-27 04:01:00,
2013-06-27 00:02:00,71.6,12.2,29.15,North,0,0.0,0.0,1,0.00,,,0.00,WUHU216HW,2013-06-27 04:02:00,
2013-06-27 00:07:00,71.6,12.2,29.15,North,0,0.0,0.0,1,0.00,,,0.00,WUHU216HW,2013-06-27 04:07:00,
2013-06-27 00:12:00,71.6,12.2,29.14,North,0,0.0,0.0,1,0.00,,,0.00,WUHU216HW,2013-06-27 04:12:00,
2013-06-27 00:17:00,71.6,12.2,29.14,North,0,0.0,0.0,1,0.00,,,0.00,WUHU216HW,2013-06-27 04:17:00,
2013-06-27 00:23:00,71.5,12.1,29.15,North,0,0.0,0.0,1,0.00,,,0.00,WUHU216HW,2013-06-27 04:23:00,
2013-06-27 00:28:00,71.3,12.0,29.14,North,0,0.0,0.0,1,0.00,,,0.00,WUHU216HW,2013-06-27 04:28:00,
2013-06-27 00:33:00,71.3,12.0,29.14,North,0,0.0,0.0,1,0.00,,,0.00,WUHU216HW,2013-06-27 04:33:00,
2013-06-27 00:38:00,71.3,12.0,29.14,North,0,0.0,0.0,1,0.00,,,0.00,WUHU216HW,2013-06-27 04:38:00,
2013-06-27 00:43:00,71.3,12.0,29.14,North,0,0.0,0.0,1,0.00,,,0.00,WUHU216HW,2013-06-27 04:43:00,
2013-06-27 00:48:00,71.1,11.8,29.14,North,0,0.0,0.0,1,0.00,,,0.00,WUHU216HW,2013-06-27 04:48:00,
2013-06-27 00:53:00,71.1,11.8,29.14,North,0,0.0,0.0,1,0.00,,,0.00,WUHU216HW,2013-06-27 04:53:00,
2013-06-27 00:58:00,71.1,11.8,29.14,North,0,0.0,0.0,1,0.00,,,0.00,WUHU216HW,2013-06-27 04:58:00,
2013-06-27 01:03:00,70.9,11.7,29.14,North,0,0.0,0.0,1,0.00,,,0.00,WUHU216HW,2013-06-27 05:03:00,
2013-06-27 01:08:00,70.9,11.7,29.14,North,0,0.0,0.0,1,0.00,,,0.00,WUHU216HW,2013-06-27 05:08:00,
2013-06-27 01:13:00,70.7,11.5,29.14,North,0,0.0,0.0,1,0.00,,,0.00,WUHU216HW,2013-06-27 05:13:00,
2013-06-27 01:18:00,70.6,11.3,29.14,North,0,0.0,0.0,1,0.00,,,0.00,WUHU216HW,2013-06-27 05:18:00,
2013-06-27 01:24:00,70.4,11.3,29.13,North,0,0.0,0.0,1,0.00,,,0.00,WUHU216HW,2013-06-27 05:24:00,
2013-06-27 01:29:00,70.2,11.1,29.13,North,0,0.0,0.0,1,0.00,,,0.00,WUHU216HW,2013-06-27 05:29:00,
2013-06-27 01:34:00,70.0,11.0,29.13,North,0,0.0,0.0,1,0.00,,,0.00,WUHU216HW,2013-06-27 05:34:00,
2013-06-27 01:39:00,69.8,10.8,29.12,North,0,0.0,0.0,1,0.00,,,0.00,WUHU216HW,2013-06-27 05:39:00,
2013-06-27 01:44:00,69.7,10.7,29.12,North,0,0.0,0.0,1,0.00,,,0.00,WUHU216HW,2013-06-27 05:44:00,
2013-06-27 01:49:00,69.5,10.5,29.13,North,0,0.0,0.0,1,0.00,,,0.00,WUHU216HW,2013-06-27 05:49:00,
2013-06-27 01:54:00,69.3,10.5,29.13,North,0,0.0,0.0,1,0.00,,,0.00,WUHU216HW,2013-06-27 05:54:00,
2013-06-27 01:59:00,69.1,10.3,29.13,North,0,0.0,0.0,1,0.00,,,0.00,WUHU216HW,2013-06-27 05:59:00,
2013-06-27 02:04:00,68.9,10.2,29.13,North,0,0.0,0.0,1,0.00,,,0.00,WUHU216HW,2013-06-27 06:04:00,
2013-06-27 02:10:00,68.9,10.2,29.13,North,0,0.0,0.0,1,0.00,,,0.00,WUHU216HW,2013-06-27 06:10:00,
2013-06-27 02:15:00,68.8,10.1,29.13,North,0,0.0,0.0,1,0.00,,,0.00,WUHU216HW,2013-06-27 06:15:00,
2013-06-27 02:20:00,68.8,10.1,29.13,North,0,0.0,0.0,1,0.00,,,0.00,WUHU216HW,2013-06-27 06:20:00,
2013-06-27 02:25:00,68.6,9.9,29.13,North,0,0.0,0.0,1,0.00,,,0.00,WUHU216HW,2013-06-27 06:25:00,
2013-06-27 02:30:00,68.4,9.8,29.13,North,0,0.0,0.0,1,0.00,,,0.00,WUHU216HW,2013-06-27 06:30:00,
2013-06-27 02:35:00,68.2,9.6,29.13,North,0,0.0,0.0,1,0.00,,,0.00,WUHU216HW,2013-06-27 06:35:00,
2013-06-27 02:40:00,68.0,9.5,29.13,North,0,0.0,0.0,1,0.00,,,0.00,WUHU216HW,2013-06-27 06:40:00,
2013-06-27 02:45:00,67.9,9.4,29.13,North,0,0.0,0.0,1,0.00,,,0.00,WUHU216HW,2013-06-27 06:45:00,
2013-06-27 02:50:00,67.9,9.4,29.13,North,0,0.0,0.0,1,0.00,,,0.00,WUHU216HW,2013-06-27 06:50:00,
2013-06-27 02:55:00,67.7,9.3,29.14,North,0,0.0,0.0,1,0.00,,,0.00,WUHU216HW,2013-06-27 06:55:00,
2013-06-27 03:01:00,67.7,9.3,29.14,North,0,0.0,0.0,1,0.00,,,0.00,WUHU216HW,2013-06-27 07:01:00,
2013-06-27 03:06:00,67.7,9.3,29.14,North,0,0.0,0.0,1,0.00,,,0.00,WUHU216HW,2013-06-27 07:06:00,
2013-06-27 03:11:00,67.9,9.4,29.13,North,0,0.0,0.0,1,0.00,,,0.00,WUHU216HW,2013-06-27 07:11:00,
2013-06-27 03:16:00,68.0,9.5,29.14,North,0,0.0,0.0,1,0.00,,,0.00,WUHU216HW,2013-06-27 07:16:00,
2013-06-27 03:21:00,68.2,9.6,29.14,North,0,0.0,0.0,1,0.00,,,0.00,WUHU216HW,2013-06-27 07:21:00,
2013-06-27 03:26:00,68.2,9.6,29.13,North,0,0.0,0.0,1,0.00,,,0.00,WUHU216HW,2013-06-27 07:26:00,
2013-06-27 03:31:00,68.4,9.8,29.13,North,0,0.0,0.0,1,0.00,,,0.00,WUHU216HW,2013-06-27 07:31:00,
2013-06-27 03:36:00,68.4,9.8,29.13,North,0,0.0,0.0,1,0.00,,,0.00,WUHU216HW,2013-06-27 07:36:00,
2013-06-27 03:41:00,68.6,9.9,29.13,North,0,0.0,0.0,1,0.00,,,0.00,WUHU216HW,2013-06-27 07:41:00,
2013-06-27 03:46:00,68.6,9.9,29.13,North,0,0.0,0.0,1,0.00,,,0.00,WUHU216HW,2013-06-27 07:46:00,
2013-06-27 03:51:00,68.6,9.9,29.12,North,0,0.0,0.0,1,0.00,,,0.00,WUHU216HW,2013-06-27 07:51:00,
2013-06-27 03:56:00,68.8,10.1,29.12,North,0,0.0,0.0,1,0.00,,,0.00,WUHU216HW,2013-06-27 07:56:00,
2013-06-27 04:01:00,68.8,10.1,29.12,North,0,0.0,0.0,1,0.00,,,0.00,WUHU216HW,2013-06-27 08:01:00,
2013-06-27 04:06:00,68.8,10.1,29.12,North,0,0.0,0.0,1,0.00,,,0.00,WUHU216HW,2013-06-27 08:06:00,
2013-06-27 04:12:00,68.8,10.1,29.12,North,0,0.0,0.0,1,0.00,,,0.00,WUHU216HW,2013-06-27 08:12:00,
2013-06-27 04:17:00,68.8,10.1,29.12,North,0,0.0,0.0,1,0.00,,,0.00,WUHU216HW,2013-06-27 08:17:00,
2013-06-27 04:22:00,68.8,10.1,29.12,North,0,0.0,0.0,1,0.00,,,0.00,WUHU216HW,2013-06-27 08:22:00,
2013-06-27 04:27:00,68.8,10.1,29.12,North,0,0.0,0.0,1,0.00,,,0.00,WUHU216HW,2013-06-27 08:27:00,
2013-06-27 04:32:00,68.9,10.2,29.12,North,0,0.0,0.0,1,0.00,,,0.00,WUHU216HW,2013-06-27 08:32:00,
2013-06-27 04:37:00,68.9,10.2,29.12,North,0,0.0,0.0,1,0.00,,,0.00,WUHU216HW,2013-06-27 08:37:00,
2013-06-27 04:42:00,69.1,10.3,29.12,North,0,0.0,0.0,1,0.00,,,0.00,WUHU216HW,2013-06-27 08:42:00,
2013-06-27 04:47:00,69.1,10.3,29.12,North,0,0.0,0.0,1,0.00,,,0.00,WUHU216HW,2013-06-27 08:47:00,
2013-06-27 04:52:00,69.5,10.5,29.12,North,0,0.0,0.0,1,0.00,,,0.00,WUHU216HW,2013-06-27 08:52:00,
2013-06-27 04:57:00,69.5,10.5,29.12,North,0,0.0,0.0,1,0.00,,,0.00,WUHU216HW,2013-06-27 08:57:00,
2013-06-27 05:02:00,69.5,10.5,29.12,North,0,0.0,0.0,1,0.00,,,0.00,WUHU216HW,2013-06-27 09:02:00,
2013-06-27 05:07:00,69.5,10.5,29.12,North,0,0.0,0.0,1,0.00,,,0.00,WUHU216HW,2013-06-27 09:07:00,
2013-06-27 05:12:00,69.5,10.5,29.12,North,0,0.0,0.0,1,0.00,,,0.00,WUHU216HW,2013-06-27 09:12:00,
2013-06-27 05:18:00,69.5,10.5,29.12,North,0,0.0,0.0,1,0.00,,,0.00,WUHU216HW,2013-06-27 09:18:00,
2013-06-27 05:23:00,69.5,10.5,29.12,North,0,0.0,0.0,1,0.00,,,0.00,WUHU216HW,2013-06-27 09:23:00,
2013-06-27 05:28:00,69.5,10.5,29.12,North,0,0.0,0.0,1,0.00,,,0.00,WUHU216HW,2013-06-27 09:28:00,
2013-06-27 05:33:00,69.7,10.7,29.12,North,0,0.0,0.0,1,0.00,,,0.00,WUHU216HW,2013-06-27 09:33:00,
2013-06-27 05:38:00,69.7,10.7,29.12,North,0,0.0,0.0,1,0.00,,,0.00,WUHU216HW,2013-06-27 09:38:00,
2013-06-27 05:43:00,69.8,10.8,29.12,North,0,0.0,0.0,1,0.00,,,0.00,WUHU216HW,2013-06-27 09:43:00,
2013-06-27 05:48:00,69.8,10.8,29.13,North,0,0.0,0.0,1,0.00,,,0.00,WUHU216HW,2013-06-27 09:48:00,
2013-06-27 05:53:00,69.8,10.8,29.13,North,0,0.0,0.0,1,0.00,,,0.00,WUHU216HW,2013-06-27 09:53:00,
2013-06-27 05:58:00,69.8,10.8,29.13,North,0,0.0,0.0,1,0.00,,,0.00,WUHU216HW,2013-06-27 09:58:00,
2013-06-27 06:03:00,69.8,10.8,29.13,North,0,0.0,0.0,1,0.00,,,0.00,WUHU216HW,2013-06-27 10:03:00,
2013-06-27 06:08:00,69.8,10.8,29.13,North,0,0.0,0.0,1,0.00,,,0.00,WUHU216HW,2013-06-27 10:08:00,
2013-06-27 06:13:00,69.8,10.8,29.13,North,0,0.0,0.0,1,0.00,,,0.00,WUHU216HW,2013-06-27 10:13:00,
2013-06-27 06:19:00,70.0,11.0,29.13,North,0,0.0,0.0,1,0.00,,,0.00,WUHU216HW,2013-06-27 10:19:00,
2013-06-27 06:24:00,69.8,10.8,29.13,North,0,0.0,0.0,1,0.00,,,0.00,WUHU216HW,2013-06-27 10:24:00,
2013-06-27 06:29:00,69.8,10.8,29.13,North,0,0.0,0.0,1,0.00,,,0.00,WUHU216HW,2013-06-27 10:29:00,
2013-06-27 06:34:00,70.0,11.0,29.13,North,0,0.0,0.0,1,0.00,,,0.00,WUHU216HW,2013-06-27 10:34:00,
2013-06-27 06:39:00,70.0,11.0,29.13,North,0,0.0,0.0,1,0.00,,,0.00,WUHU216HW,2013-06-27 10:39:00,
2013-06-27 06:44:00,70.2,11.1,29.13,North,0,0.0,0.0,1,0.00,,,0.00,WUHU216HW,2013-06-27 10:44:00,
2013-06-27 06:49:00,70.2,11.1,29.13,North,0,0.0,0.0,1,0.00,,,0.00,WUHU216HW,2013-06-27 10:49:00,
2013-06-27 06:54:00,70.2,11.1,29.14,North,0,0.0,0.0,1,0.00,,,0.00,WUHU216HW,2013-06-27 10:54:00,
2013-06-27 06:59:00,70.2,11.1,29.13,North,0,0.0,0.0,1,0.00,,,0.00,WUHU216HW,2013-06-27 10:59:00,
2013-06-27 07:04:00,70.4,11.3,29.14,North,0,0.0,0.0,1,0.00,,,0.00,WUHU216HW,2013-06-27 11:04:00,
2013-06-27 07:09:00,70.6,11.3,29.14,North,0,0.0,0.0,1,0.00,,,0.00,WUHU216HW,2013-06-27 11:09:00,
2013-06-27 07:14:00,70.6,11.3,29.14,North,0,0.0,0.0,1,0.00,,,0.00,WUHU216HW,2013-06-27 11:14:00,
2013-06-27 07:19:00,70.9,11.7,29.13,North,0,0.0,0.0,1,0.00,,,0.00,WUHU216HW,2013-06-27 11:19:00,
2013-06-27 07:24:00,70.9,11.7,29.13,North,0,0.0,0.0,1,0.00,,,0.00,WUHU216HW,2013-06-27 11:24:00,
2013-06-27 07:29:00,71.1,11.8,29.13,North,0,0.0,0.0,1,0.00,,,0.00,WUHU216HW,2013-06-27 11:29:00,
2013-06-27 07:35:00,71.3,12.0,29.13,North,0,0.0,0.0,1,0.00,,,0.00,WUHU216HW,2013-06-27 11:35:00,
2013-06-27 07:40:00,71.5,12.1,29.14,North,0,0.0,0.0,1,0.00,,,0.00,WUHU216HW,2013-06-27 11:40:00,
2013-06-27 07:45:00,71.6,12.2,29.14,North,0,0.0,0.0,1,0.00,,,0.00,WUHU216HW,2013-06-27 11:45:00,
2013-06-27 07:50:00,71.6,12.2,29.14,North,0,0.0,0.0,1,0.00,,,0.00,WUHU216HW,2013-06-27 11:50:00,
2013-06-27 07:55:00,71.8,12.4,29.14,North,0,0.0,0.0,1,0.00,,,0.00,WUHU216HW,2013-06-27 11:55:00,
2013-06-27 08:00:00,72.0,12.5,29.14,North,0,0.0,0.0,1,0.00,,,0.00,WUHU216HW,2013-06-27 12:00:00,
2013-06-27 08:05:00,72.2,12.7,29.14,North,0,0.0,0.0,1,0.00,,,0.00,WUHU216HW,2013-06-27 12:05:00,
2013-06-27 08:10:00,72.2,12.7,29.14,North,0,0.0,0.0,1,0.00,,,0.00,WUHU216HW,2013-06-27 12:10:00,
2013-06-27 08:15:00,72.4,12.8,29.14,North,0,0.0,0.0,1,0.00,,,0.00,WUHU216HW,2013-06-27 12:15:00,
2013-06-27 08:20:00,72.5,13.0,29.14,North,0,0.0,0.0,1,0.00,,,0.00,WUHU216HW,2013-06-27 12:20:00,
2013-06-27 08:25:00,72.5,13.0,29.14,North,0,0.0,0.0,1,0.00,,,0.00,WUHU216HW,2013-06-27 12:25:00,
2013-06-27 08:31:00,72.7,13.2,29.14,North,0,0.0,0.0,1,0.00,,,0.00,WUHU216HW,2013-06-27 12:31:00,
2013-06-27 08:36:00,72.7,13.2,29.14,North,0,0.0,0.0,1,0.00,,,0.00,WUHU216HW,2013-06-27 12:36:00,
2013-06-27 08:41:00,72.7,13.2,29.14,North,0,0.0,0.0,1,0.00,,,0.00,WUHU216HW,2013-06-27 12:41:00,
2013-06-27 08:46:00,72.9,13.2,29.14,North,0,0.0,0.0,1,0.00,,,0.00,WUHU216HW,2013-06-27 12:46:00,
2013-06-27 08:51:00,73.3,13.5,29.14,North,0,0.0,0.0,1,0.00,,,0.00,WUHU216HW,2013-06-27 12:51:00,
2013-06-27 08:56:00,73.6,13.8,29.14,North,0,0.0,0.0,1,0.00,,,0.00,WUHU216HW,2013-06-27 12:56:00,
2013-06-27 09:01:00,73.8,14.0,29.14,North,0,0.0,0.0,1,0.00,,,0.00,WUHU216HW,2013-06-27 13:01:00,
2013-06-27 09:06:00,74.2,14.2,29.14,North,0,0.0,0.0,1,0.00,,,0.00,WUHU216HW,2013-06-27 13:06:00,
2013-06-27 09:11:00,74.5,14.4,29.14,North,0,0.0,0.0,1,0.00,,,0.00,WUHU216HW,2013-06-27 13:11:00,
2013-06-27 09:16:00,74.7,14.6,29.15,North,0,0.0,0.0,1,0.00,,,0.00,WUHU216HW,2013-06-27 13:16:00,
2013-06-27 09:21:00,74.7,14.6,29.14,North,0,0.0,0.0,1,0.00,,,0.00,WUHU216HW,2013-06-27 13:21:00,
2013-06-27 09:26:00,74.5,14.4,29.15,North,0,0.0,0.0,1,0.00,,,0.00,WUHU216HW,2013-06-27 13:26:00,
2013-06-27 09:31:00,74.5,14.4,29.15,North,0,0.0,0.0,1,0.00,,,0.00,WUHU216HW,2013-06-27 13:31:00,
2013-06-27 09:36:00,74.9,14.7,29.14,North,0,0.0,0.0,1,0.00,,,0.00,WUHU216HW,2013-06-27 13:36:00,
2013-06-27 09:41:00,75.2,14.9,29.15,North,0,0.0,0.0,1,0.00,,,0.00,WUHU216HW,2013-06-27 13:41:00,
2013-06-27 09:46:00,75.6,15.2,29.15,North,0,0.0,0.0,1,0.00,,,0.00,WUHU216HW,2013-06-27 13:46:00,
2013-06-27 09:51:00,76.0,15.5,29.14,North,0,0.0,0.0,1,0.00,,,0.00,WUHU216HW,2013-06-27 13:51:00,
2013-06-27 09:57:00,76.3,15.9,29.14,North,0,0.0,0.0,1,0.00,,,0.00,WUHU216HW,2013-06-27 13:57:00,
2013-06-27 10:02:00,76.7,16.1,29.14,North,0,0.0,0.0,1,0.00,,,0.00,WUHU216HW,2013-06-27 14:02:00,
2013-06-27 10:07:00,77.0,16.4,29.14,North,0,0.0,0.0,1,0.00,,,0.00,WUHU216HW,2013-06-27 14:07:00,
2013-06-27 10:12:00,76.9,16.2,29.14,North,0,0.0,0.0,1,0.00,,,0.00,WUHU216HW,2013-06-27 14:12:00,
2013-06-27 10:17:00,76.7,16.1,29.15,North,0,0.0,0.0,1,0.00,,,0.00,WUHU216HW,2013-06-27 14:17:00,
2013-06-27 10:22:00,76.7,16.1,29.14,North,0,0.0,0.0,1,0.00,,,0.00,WUHU216HW,2013-06-27 14:22:00,
2013-06-27 10:27:00,77.0,16.4,29.14,North,0,0.0,0.0,1,0.00,,,0.00,WUHU216HW,2013-06-27 14:27:00,
2013-06-27 10:32:00,77.0,16.4,29.14,North,0,0.0,0.0,1,0.00,,,0.00,WUHU216HW,2013-06-27 14:32:00,
2013-06-27 10:37:00,77.0,16.4,29.15,North,0,0.0,0.0,1,0.00,,,0.00,WUHU216HW,2013-06-27 14:37:00,
2013-06-27 10:42:00,77.6,16.7,29.14,North,0,0.0,0.0,1,0.00,,,0.00,WUHU216HW,2013-06-27 14:42:00,
2013-06-27 10:47:00,77.6,16.7,29.14,North,0,0.0,0.0,1,0.00,,,0.00,WUHU216HW,2013-06-27 14:47:00,
2013-06-27 10:52:00,78.1,17.1,29.15,North,0,0.0,0.0,1,0.00,,,0.00,WUHU216HW,2013-06-27 14:52:00,
2013-06-27 10:57:00,78.3,17.3,29.15,North,0,0.0,0.0,1,0.00,,,0.00,WUHU216HW,2013-06-27 14:57:00,
2013-06-27 11:02:00,78.1,17.1,29.15,North,0,0.0,0.0,1,0.00,,,0.00,WUHU216HW,2013-06-27 15:02:00,
2013-06-27 11:07:00,78.3,17.3,29.15,North,0,0.0,0.0,1,0.00,,,0.00,WUHU216HW,2013-06-27 15:07:00,
2013-06-27 11:12:00,78.8,17.6,29.15,North,0,0.0,0.0,1,0.00,,,0.00,WUHU216HW,2013-06-27 15:12:00,
2013-06-27 11:17:00,78.7,17.6,29.15,North,0,0.0,0.0,1,0.00,,,0.00,WUHU216HW,2013-06-27 15:17:00,
2013-06-27 11:22:00,79.2,17.9,29.16,North,0,0.0,0.0,1,0.00,,,0.00,WUHU216HW,2013-06-27 15:22:00,
2013-06-27 11:27:00,79.2,17.9,29.16,North,0,0.0,0.0,1,0.00,,,0.00,WUHU216HW,2013-06-27 15:27:00,
2013-06-27 11:32:00,79.2,17.9,29.16,North,0,0.0,0.0,1,0.00,,,0.00,WUHU216HW,2013-06-27 15:32:00,
2013-06-27 11:37:00,79.4,18.1,29.16,North,0,0.0,0.0,1,0.00,,,0.00,WUHU216HW,2013-06-27 15:37:00,
2013-06-27 11:42:00,79.9,18.6,29.16,North,0,0.0,0.0,1,0.00,,,0.00,WUHU216HW,2013-06-27 15:42:00,
2013-06-27 11:47:00,80.5,18.9,29.16,North,0,0.0,0.0,1,0.00,,,0.00,WUHU216HW,2013-06-27 15:47:00,
2013-06-27 11:52:00,80.3,18.8,29.16,North,0,0.0,0.0,1,0.00,,,0.00,WUHU216HW,2013-06-27 15:52:00,
2013-06-27 11:57:00,80.6,19.1,29.16,North,0,0.0,0.0,1,0.00,,,0.00,WUHU216HW,2013-06-27 15:57:00,
2013-06-27 12:03:00,81.0,19.4,29.16,North,0,0.0,0.0,1,0.00,,,0.00,WUHU216HW,2013-06-27 16:03:00,
2013-06-27 12:08:00,81.0,19.4,29.16,North,0,0.0,0.0,1,0.00,,,0.00,WUHU216HW,2013-06-27 16:08:00,
2013-06-27 12:13:00,81.0,19.4,29.16,North,0,0.0,0.0,1,0.00,,,0.00,WUHU216HW,2013-06-27 16:13:00,
2013-06-27 12:18:00,81.7,20.0,29.16,North,0,0.0,0.0,1,0.00,,,0.00,WUHU216HW,2013-06-27 16:18:00,
2013-06-27 12:23:00,82.3,20.3,29.16,North,0,0.0,0.0,1,0.00,,,0.00,WUHU216HW,2013-06-27 16:23:00,
2013-06-27 12:28:00,82.8,20.8,29.16,North,0,0.0,0.0,1,0.00,,,0.00,WUHU216HW,2013-06-27 16:28:00,
2013-06-27 12:33:00,83.2,21.1,29.16,North,0,0.0,0.0,1,0.00,,,0.00,WUHU216HW,2013-06-27 16:33:00,
2013-06-27 12:38:00,83.3,21.2,29.16,North,0,0.0,0.0,1,0.00,,,0.00,WUHU216HW,2013-06-27 16:38:00,
2013-06-27 12:43:00,83.7,21.4,29.16,North,0,0.0,0.0,1,0.00,,,0.00,WUHU216HW,2013-06-27 16:43:00,
2013-06-27 12:48:00,83.9,21.5,29.16,North,0,0.0,0.0,1,0.00,,,0.00,WUHU216HW,2013-06-27 16:48:00,
2013-06-27 12:53:00,84.8,22.2,29.16,North,0,0.0,0.0,1,0.00,,,0.00,WUHU216HW,2013-06-27 16:53:00,
2013-06-27 12:59:00,84.8,22.2,29.16,North,0,0.0,0.0,1,0.00,,,0.00,WUHU216HW,2013-06-27 16:59:00,
2013-06-27 13:04:00,85.3,22.7,29.16,North,0,0.0,0.0,1,0.00,,,0.00,WUHU216HW,2013-06-27 17:04:00,
2013-06-27 13:09:00,85.0,22.3,29.16,North,0,0.0,0.0,1,0.00,,,0.00,WUHU216HW,2013-06-27 17:09:00,
2013-06-27 13:14:00,85.0,22.3,29.16,North,0,0.0,0.0,1,0.00,,,0.00,WUHU216HW,2013-06-27 17:14:00,
2013-06-27 13:19:00,85.1,22.5,29.16,North,0,0.0,0.0,1,0.00,,,0.00,WUHU216HW,2013-06-27 17:19:00,
2013-06-27 13:24:00,85.7,23.0,29.16,North,0,0.0,0.0,1,0.00,,,0.00,WUHU216HW,2013-06-27 17:24:00,
2013-06-27 13:29:00,85.7,23.0,29.16,North,0,0.0,0.0,1,0.00,,,0.00,WUHU216HW,2013-06-27 17:29:00,
2013-06-27 13:34:00,86.0,23.2,29.16,North,0,0.0,0.0,1,0.00,,,0.00,WUHU216HW,2013-06-27 17:34:00,
2013-06-27 13:39:00,86.0,23.2,29.16,North,0,0.0,0.0,1,0.00,,,0.00,WUHU216HW,2013-06-27 17:39:00,
2013-06-27 13:44:00,86.8,23.8,29.16,North,0,0.0,0.0,1,0.00,,,0.00,WUHU216HW,2013-06-27 17:44:00,
2013-06-27 13:49:00,87.3,24.2,29.16,North,0,0.0,0.0,1,0.00,,,0.00,WUHU216HW,2013-06-27 17:49:00,
2013-06-27 13:54:00,87.1,24.1,29.16,North,0,0.0,0.0,1,0.00,,,0.00,WUHU216HW,2013-06-27 17:54:00,
2013-06-27 13:59:00,87.5,24.4,29.16,North,0,0.0,0.0,1,0.00,,,0.00,WUHU216HW,2013-06-27 17:59:00,
2013-06-27 14:04:00,87.8,24.7,29.16,North,0,0.0,0.0,1,0.00,,,0.00,WUHU216HW,2013-06-27 18:04:00,
2013-06-27 14:09:00,88.0,24.8,29.16,North,0,0.0,0.0,1,0.00,,,0.00,WUHU216HW,2013-06-27 18:09:00,
2013-06-27 14:14:00,88.2,24.9,29.16,North,0,0.0,0.0,1,0.00,,,0.00,WUHU216HW,2013-06-27 18:14:00,
2013-06-27 14:19:00,88.2,24.9,29.16,North,0,0.0,0.0,1,0.00,,,0.00,WUHU216HW,2013-06-27 18:19:00,
2013-06-27 14:24:00,88.4,25.0,29.17,North,0,0.0,0.0,1,0.00,,,0.00,WUHU216HW,2013-06-27 18:24:00,
2013-06-27 14:29:00,89.1,25.6,29.17,North,0,0.0,0.0,1,0.00,,,0.00,WUHU216HW,2013-06-27 18:29:00,
2013-06-27 14:34:00,89.6,25.9,29.16,North,0,0.0,0.0,1,0.00,,,0.00,WUHU216HW,2013-06-27 18:34:00,
2013-06-27 14:39:00,89.5,25.8,29.16,North,0,0.0,0.0,1,0.00,,,0.00,WUHU216HW,2013-06-27 18:39:00,
2013-06-27 14:45:00,89.3,25.7,29.16,North,0,0.0,0.0,1,0.00,,,0.00,WUHU216HW,2013-06-27 18:45:00,
2013-06-27 14:50:00,89.3,25.7,29.16,North,0,0.0,0.0,1,0.00,,,0.00,WUHU216HW,2013-06-27 18:50:00,
2013-06-27 14:55:00,89.5,25.8,29.16,North,0,0.0,0.0,1,0.00,,,0.00,WUHU216HW,2013-06-27 18:55:00,
2013-06-27 15:00:00,89.1,25.6,29.16,North,0,0.0,0.0,1,0.00,,,0.00,WUHU216HW,2013-06-27 19:00:00,
2013-06-27 15:05:00,89.1,25.6,29.16,North,0,0.0,0.0,1,0.00,,,0.00,WUHU216HW,2013-06-27 19:05:00,
2013-06-27 15:10:00,89.1,25.6,29.17,North,0,0.0,0.0,1,0.00,,,0.00,WUHU216HW,2013-06-27 19:10:00,
2013-06-27 15:15:00,88.6,25.2,29.17,North,0,0.0,0.0,1,0.00,,,0.00,WUHU216HW,2013-06-27 19:15:00,
2013-06-27 15:20:00,88.6,25.2,29.17,North,0,0.0,0.0,1,0.00,,,0.00,WUHU216HW,2013-06-27 19:20:00,
2013-06-27 15:25:00,88.6,25.2,29.17,North,0,0.0,0.0,1,0.00,,,0.00,WUHU216HW,2013-06-27 19:25:00,
2013-06-27 15:30:00,88.9,25.4,29.16,North,0,0.0,0.0,1,0.00,,,0.00,WUHU216HW,2013-06-27 19:30:00,
2013-06-27 15:35:00,89.6,25.9,29.16,North,0,0.0,0.0,1,0.00,,,0.00,WUHU216HW,2013-06-27 19:35:00,
2013-06-27 15:40:00,89.8,26.1,29.16,North,0,0.0,0.0,1,0.00,,,0.00,WUHU216HW,2013-06-27 19:40:00,
2013-06-27 15:45:00,90.0,26.2,29.16,North,0,0.0,0.0,1,0.00,,,0.00,WUHU216HW,2013-06-27 19:45:00,
2013-06-27 15:50:00,89.5,25.8,29.16,North,0,0.0,0.0,1,0.00,,,0.00,WUHU216HW,2013-06-27 19:50:00,
2013-06-27 15:55:00,89.5,25.8,29.16,North,0,0.0,0.0,1,0.00,,,0.00,WUHU216HW,2013-06-27 19:55:00,
2013-06-27 16:01:00,89.1,25.6,29.16,North,0,0.0,0.0,1,0.00,,,0.00,WUHU216HW,2013-06-27 20:01:00,
2013-06-27 16:06:00,88.4,25.0,29.16,North,0,0.0,0.0,1,0.00,,,0.00,WUHU216HW,2013-06-27 20:06:00,
2013-06-27 16:11:00,88.4,25.0,29.16,North,0,0.0,0.0,1,0.00,,,0.00,WUHU216HW,2013-06-27 20:11:00,
2013-06-27 16:16:00,87.8,24.7,29.16,North,0,0.0,0.0,1,0.00,,,0.00,WUHU216HW,2013-06-27 20:16:00,
2013-06-27 16:21:00,87.8,24.7,29.16,North,0,0.0,0.0,1,0.00,,,0.00,WUHU216HW,2013-06-27 20:21:00,
2013-06-27 16:26:00,88.2,24.9,29.15,North,0,0.0,0.0,1,0.00,,,0.00,WUHU216HW,2013-06-27 20:26:00,
2013-06-27 16:31:00,88.2,24.9,29.15,North,0,0.0,0.0,1,0.00,,,0.00,WUHU216HW,2013-06-27 20:31:00,
2013-06-27 16:36:00,89.3,25.7,29.15,North,0,0.0,0.0,1,0.00,,,0.00,WUHU216HW,2013-06-27 20:36:00,
2013-06-27 16:41:00,89.6,25.9,29.15,North,0,0.0,0.0,1,0.00,,,0.00,WUHU216HW,2013-06-27 20:41:00,
2013-06-27 16:46:00,89.6,25.9,29.15,North,0,0.0,0.0,1,0.00,,,0.00,WUHU216HW,2013-06-27 20:46:00,
2013-06-27 16:51:00,89.3,25.7,29.15,North,0,0.0,0.0,1,0.00,,,0.00,WUHU216HW,2013-06-27 20:51:00,
2013-06-27 16:56:00,89.5,25.8,29.15,North,0,0.0,0.0,1,0.00,,,0.00,WUHU216HW,2013-06-27 20:56:00,
2013-06-27 17:01:00,89.6,25.9,29.15,North,0,0.0,0.0,1,0.00,,,0.00,WUHU216HW,2013-06-27 21:01:00,
2013-06-27 17:06:00,89.8,26.1,29.14,North,0,0.0,0.0,1,0.00,,,0.00,WUHU216HW,2013-06-27 21:06:00,
2013-06-27 17:11:00,89.8,26.1,29.14,North,0,0.0,0.0,1,0.00,,,0.00,WUHU216HW,2013-06-27 21:11:00,
2013-06-27 17:16:00,90.2,26.4,29.14,North,0,0.0,0.0,1,0.00,,,0.00,WUHU216HW,2013-06-27 21:16:00,
2013-06-27 17:21:00,90.0,26.2,29.14,North,0,0.0,0.0,1,0.00,,,0.00,WUHU216HW,2013-06-27 21:21:00,
2013-06-27 17:26:00,90.4,26.5,29.14,North,0,0.0,0.0,1,0.00,,,0.00,WUHU216HW,2013-06-27 21:26:00,
2013-06-27 17:31:00,90.0,26.2,29.13,North,0,0.0,0.0,1,0.00,,,0.00,WUHU216HW,2013-06-27 21:31:00,
2013-06-27 17:37:00,89.8,26.1,29.13,North,0,0.0,0.0,1,0.00,,,0.00,WUHU216HW,2013-06-27 21:37:00,
2013-06-27 17:42:00,89.6,25.9,29.13,North,0,0.0,0.0,1,0.00,,,0.00,WUHU216HW,2013-06-27 21:42:00,
2013-06-27 17:47:00,89.1,25.6,29.13,North,0,0.0,0.0,1,0.00,,,0.00,WUHU216HW,2013-06-27 21:47:00,
2013-06-27 17:52:00,88.4,25.0,29.13,North,0,0.0,0.0,1,0.00,,,0.00,WUHU216HW,2013-06-27 21:52:00,
2013-06-27 17:57:00,87.5,24.4,29.13,North,0,0.0,0.0,1,0.00,,,0.00,WUHU216HW,2013-06-27 21:57:00,
2013-06-27 18:02:00,87.3,24.2,29.13,North,0,0.0,0.0,1,0.00,,,0.00,WUHU216HW,2013-06-27 22:02:00,
2013-06-27 18:07:00,88.9,25.4,29.13,North,0,0.0,0.0,1,0.00,,,0.00,WUHU216HW,2013-06-27 22:07:00,
2013-06-27 18:12:00,90.2,26.4,29.13,North,0,0.0,0.0,1,0.00,,,0.00,WUHU216HW,2013-06-27 22:12:00,
2013-06-27 18:17:00,91.1,27.1,29.12,North,0,0.0,0.0,1,0.00,,,0.00,WUHU216HW,2013-06-27 22:17:00,
2013-06-27 18:22:00,91.4,27.4,29.12,North,0,0.0,0.0,1,0.00,,,0.00,WUHU216HW,2013-06-27 22:22:00,
2013-06-27 18:27:00,91.8,27.6,29.11,North,0,0.0,0.0,1,0.00,,,0.00,WUHU216HW,2013-06-27 22:27:00,
2013-06-27 18:32:00,92.0,27.7,29.11,North,0,0.0,0.0,1,0.00,,,0.00,WUHU216HW,2013-06-27 22:32:00,
2013-06-27 18:37:00,91.4,27.4,29.11,North,0,0.0,0.0,1,0.00,,,0.00,WUHU216HW,2013-06-27 22:37:00,
2013-06-27 18:43:00,91.1,27.1,29.11,North,0,0.0,0.0,1,0.00,,,0.00,WUHU216HW,2013-06-27 22:43:00,
2013-06-27 18:48:00,90.9,26.9,29.10,North,0,0.0,0.0,1,0.00,,,0.00,WUHU216HW,2013-06-27 22:48:00,
2013-06-27 18:53:00,90.7,26.8,29.10,North,0,0.0,0.0,1,0.00,,,0.00,WUHU216HW,2013-06-27 22:53:00,
2013-06-27 18:58:00,90.4,26.5,29.10,North,0,0.0,0.0,1,0.00,,,0.00,WUHU216HW,2013-06-27 22:58:00,
2013-06-27 19:03:00,90.2,26.4,29.10,North,0,0.0,0.0,1,0.00,,,0.00,WUHU216HW,2013-06-27 23:03:00,
2013-06-27 19:08:00,89.8,26.1,29.10,North,0,0.0,0.0,1,0.00,,,0.00,WUHU216HW,2013-06-27 23:08:00,
2013-06-27 19:13:00,89.5,25.8,29.11,North,0,0.0,0.0,1,0.00,,,0.00,WUHU216HW,2013-06-27 23:13:00,
2013-06-27 19:18:00,89.5,25.8,29.11,North,0,0.0,0.0,1,0.00,,,0.00,WUHU216HW,2013-06-27 23:18:00,
2013-06-27 19:23:00,89.3,25.7,29.11,North,0,0.0,0.0,1,0.00,,,0.00,WUHU216HW,2013-06-27 23:23:00,
2013-06-27 19:28:00,89.1,25.6,29.10,North,0,0.0,0.0,1,0.00,,,0.00,WUHU216HW,2013-06-27 23:28:00,
2013-06-27 19:33:00,88.6,25.2,29.10,North,0,0.0,0.0,1,0.00,,,0.00,WUHU216HW,2013-06-27 23:33:00,
2013-06-27 19:38:00,88.0,24.8,29.10,North,0,0.0,0.0,1,0.00,,,0.00,WUHU216HW,2013-06-27 23:38:00,
2013-06-27 19:44:00,87.7,24.5,29.10,North,0,0.0,0.0,1,0.00,,,0.00,WUHU216HW,2013-06-27 23:44:00,
2013-06-27 19:49:00,87.5,24.4,29.10,North,0,0.0,0.0,1,0.00,,,0.00,WUHU216HW,2013-06-27 23:49:00,
2013-06-27 19:54:00,87.1,24.1,29.10,North,0,0.0,0.0,1,0.00,,,0.00,WUHU216HW,2013-06-27 23:54:00,
2013-06-27 19:59:00,86.9,23.9,29.10,North,0,0.0,0.0,1,0.00,,,0.00,WUHU216HW,2013-06-27 23:59:00,
2013-06-27 20:04:00,86.8,23.8,29.10,North,0,0.0,0.0,1,0.00,,,0.00,WUHU216HW,2013-06-28 00:04:00,
2013-06-27 20:09:00,86.4,23.5,29.09,North,0,0.0,0.0,1,0.00,,,0.00,WUHU216HW,2013-06-28 00:09:00,
2013-06-27 20:14:00,86.2,23.4,29.10,North,0,0.0,0.0,1,0.00,,,0.00,WUHU216HW,2013-06-28 00:14:00,
2013-06-27 20:19:00,86.0,23.2,29.10,North,0,0.0,0.0,1,0.00,,,0.00,WUHU216HW,2013-06-28 00:19:00,
2013-06-27 20:24:00,85.7,23.0,29.10,North,0,0.0,0.0,1,0.00,,,0.00,WUHU216HW,2013-06-28 00:24:00,
2013-06-27 20:29:00,85.5,22.8,29.09,North,0,0.0,0.0,1,0.00,,,0.00,WUHU216HW,2013-06-28 00:29:00,
2013-06-27 20:35:00,85.3,22.7,29.10,North,0,0.0,0.0,1,0.00,,,0.00,WUHU216HW,2013-06-28 00:35:00,
2013-06-27 20:40:00,85.3,22.7,29.10,North,0,0.0,0.0,1,0.00,,,0.00,WUHU216HW,2013-06-28 00:40:00,
2013-06-27 20:46:00,85.0,22.3,29.10,North,0,0.0,0.0,1,0.00,,,0.00,WUHU216HW,2013-06-28 00:46:00,
2013-06-27 20:51:00,84.6,22.1,29.10,North,0,0.0,0.0,1,0.00,,,0.00,WUHU216HW,2013-06-28 00:51:00,
2013-06-27 20:56:00,84.4,22.0,29.10,North,0,0.0,0.0,1,0.00,,,0.00,WUHU216HW,2013-06-28 00:56:00,
2013-06-27 21:01:00,84.2,21.8,29.10,North,0,0.0,0.0,1,0.00,,,0.00,WUHU216HW,2013-06-28 01:01:00,
2013-06-27 21:06:00,83.9,21.5,29.09,North,0,0.0,0.0,1,0.00,,,0.00,WUHU216HW,2013-06-28 01:06:00,
2013-06-27 21:11:00,83.5,21.2,29.08,North,0,0.0,0.0,1,0.00,,,0.00,WUHU216HW,2013-06-28 01:11:00,
2013-06-27 21:17:00,83.2,21.1,29.09,North,0,0.0,0.0,1,0.00,,,0.00,WUHU216HW,2013-06-28 01:17:00,
2013-06-27 21:22:00,82.8,20.8,29.08,North,0,0.0,0.0,1,0.00,,,0.00,WUHU216HW,2013-06-28 01:22:00,
2013-06-27 21:27:00,82.3,20.3,29.08,North,0,0.0,0.0,1,0.00,,,0.00,WUHU216HW,2013-06-28 01:27:00,
2013-06-27 21:32:00,81.9,20.1,29.08,North,0,0.0,0.0,1,0.00,,,0.00,WUHU216HW,2013-06-28 01:32:00,
2013-06-27 21:37:00,81.7,20.0,29.08,North,0,0.0,0.0,1,0.00,,,0.00,WUHU216HW,2013-06-28 01:37:00,
2013-06-27 21:43:00,81.4,19.6,29.08,North,0,0.0,0.0,1,0.00,,,0.00,WUHU216HW,2013-06-28 01:43:00,
2013-06-27 21:48:00,81.0,19.4,29.08,North,0,0.0,0.0,1,0.00,,,0.00,WUHU216HW,2013-06-28 01:48:00,
2013-06-27 21:53:00,80.6,19.1,29.08,North,0,0.0,0.0,1,0.00,,,0.00,WUHU216HW,2013-06-28 01:53:00,
2013-06-27 21:58:00,80.6,19.1,29.08,North,0,0.0,0.0,1,0.00,,,0.00,WUHU216HW,2013-06-28 01:58:00,
2013-06-27 22:03:00,80.6,19.1,29.08,North,0,0.0,0.0,1,0.00,,,0.00,WUHU216HW,2013-06-28 02:03:00,
2013-06-27 22:08:00,80.6,19.1,29.08,North,0,0.0,0.0,1,0.00,,,0.00,WUHU216HW,2013-06-28 02:08:00,
2013-06-27 22:13:00,80.6,19.1,29.08,North,0,0.0,0.0,1,0.00,,,0.00,WUHU216HW,2013-06-28 02:13:00,
2013-06-27 22:18:00,80.3,18.8,29.08,North,0,0.0,0.0,1,0.00,,,0.00,WUHU216HW,2013-06-28 02:18:00,
2013-06-27 22:23:00,80.1,18.6,29.08,North,0,0.0,0.0,1,0.00,,,0.00,WUHU216HW,2013-06-28 02:23:00,
2013-06-27 22:28:00,79.9,18.6,29.08,North,0,0.0,0.0,1,0.00,,,0.00,WUHU216HW,2013-06-28 02:28:00,
2013-06-27 22:33:00,79.9,18.6,29.08,North,0,0.0,0.0,1,0.00,,,0.00,WUHU216HW,2013-06-28 02:33:00,
2013-06-27 22:38:00,79.6,18.2,29.08,North,0,0.0,0.0,1,0.00,,,0.00,WUHU216HW,2013-06-28 02:38:00,
2013-06-27 22:43:00,79.4,18.1,29.08,North,0,0.0,0.0,1,0.00,,,0.00,WUHU216HW,2013-06-28 02:43:00,
2013-06-27 22:48:00,79.0,17.8,29.08,North,0,0.0,0.0,1,0.00,,,0.00,WUHU216HW,2013-06-28 02:48:00,
2013-06-27 22:53:00,78.7,17.6,29.08,North,0,0.0,0.0,1,0.00,,,0.00,WUHU216HW,2013-06-28 02:53:00,
2013-06-27 22:58:00,78.1,17.1,29.08,North,0,0.0,0.0,1,0.00,,,0.00,WUHU216HW,2013-06-28 02:58:00,
2013-06-27 23:03:00,77.9,17.0,29.08,North,0,0.0,0.0,1,0.00,,,0.00,WUHU216HW,2013-06-28 03:03:00,
2013-06-27 23:09:00,77.8,16.9,29.08,North,0,0.0,0.0,1,0.00,,,0.00,WUHU216HW,2013-06-28 03:09:00,
2013-06-27 23:14:00,77.4,16.7,29.08,North,0,0.0,0.0,1,0.00,,,0.00,WUHU216HW,2013-06-28 03:14:00,
2013-06-27 23:19:00,77.0,16.4,29.08,North,0,0.0,0.0,1,0.00,,,0.00,WUHU216HW,2013-06-28 03:19:00,
2013-06-27 23:24:00,76.9,16.2,29.08,North,0,0.0,0.0,1,0.00,,,0.00,WUHU216HW,2013-06-28 03:24:00,
2013-06-27 23:29:00,76.5,15.9,29.08,North,0,0.0,0.0,1,0.00,,,0.00,WUHU216HW,2013-06-28 03:29:00,
2013-06-27 23:34:00,76.3,15.9,29.08,North,0,0.0,0.0,1,0.00,,,0.00,WUHU216HW,2013-06-28 03:34:00,
2013-06-27 23:40:00,76.1,15.7,29.07,North,0,0.0,0.0,1,0.00,,,0.00,WUHU216HW,2013-06-28 03:40:00,
2013-06-27 23:45:00,76.1,15.7,29.07,North,0,0.0,0.0,1,0.00,,,0.00,WUHU216HW,2013-06-28 03:45:00,
2013-06-27 23:50:00,76.0,15.5,29.07,North,0,0.0,0.0,1,0.00,,,0.00,WUHU216HW,2013-06-28 03:50:00,
2013-06-27 23:55:00,75.8,15.4,29.07,North,0,0.0,0.0,1,0.00,,,0.00,WUHU216HW,2013-06-28 03:55:00,